Silver Cloud — C6MQ5 — position and weather

sailwx.info

Track history (hours):
 
Tides and Currents Weather Stations Pressure Air Temp Water Temp Dewpoint Dewpoint Depression Visibility Wind Speed Wind Dir Waves Ship Positions

Silver Cloud

Operator: V Ships Leisure SAM

Last reported at 2016-Oct-01 15:31 UTC. Time now 2016-Oct-01 17:13 UTC.
Position N 44°19' E 009°14'.

Length 156 m; draft 5.7 m.

Type: Passenger vessel. MMSI: 309027000.

Date/timePositionNaut miles runAvg speedWind from/ knotsBaromVisibWave heightAir tempDewpointWater temp
2016-Oct-01 15:31N 44°19' E 009°14'0 0.0
2016-Oct-01 14:28N 44°19' E 009°14'0 0.0
2016-Oct-01 13:28N 44°19' E 009°14'4 0.5
2016-Oct-01 04:34N 44°15' E 009°17'1211.8
2016-Oct-01 03:33N 44°09' E 009°03'7510.6
2016-Sep-30 20:29N 43°43' E 007°26'0 0.0
2016-Sep-30 17:29N 43°43' E 007°26'0 0.0
2016-Sep-30 16:29N 43°43' E 007°26'0 0.0
2016-Sep-30 14:29N 43°43' E 007°26'0 0.0
2016-Sep-30 13:29N 43°43' E 007°25'0 0.0
2016-Sep-30 10:29N 43°43' E 007°25'0 0.0
2016-Sep-30 08:23N 43°43' E 007°25'0 0.0
2016-Sep-30 06:14N 43°43' E 007°25'13 4.9
2016-Sep-30 03:33N 43°32' E 007°35'1312.9
2016-Sep-30 02:34N 43°21' E 007°44'6312.3
2016-Sep-29 21:28N 42°37' E 008°45'  
2016-Sep-27 00:33N 39°16' E 003°25'5112.7
2016-Sep-26 20:33N 39°06' E 002°21'1313.4
2016-Sep-26 19:34N 39°08' E 002°04'27 0.7
2016-Sep-25 04:31N 38°54' E 001°34'35 8.8
2016-Sep-25 00:33N 39°13' E 002°12'17 8.7
2016-Sep-24 22:33N 39°23' E 002°30'8 8.4
2016-Sep-24 21:33N 39°29' E 002°37'4 2.0
2016-Sep-24 19:31N 39°33' E 002°38'0 0.0
2016-Sep-24 18:31N 39°33' E 002°38'0 0.0
2016-Sep-24 17:31N 39°33' E 002°38'0 0.0
2016-Sep-24 16:31N 39°33' E 002°38'0 0.0
2016-Sep-24 14:31N 39°33' E 002°38'0 0.0
2016-Sep-24 12:31N 39°33' E 002°38'0 0.0
2016-Sep-24 10:30N 39°33' E 002°38'0 0.0
2016-Sep-24 09:31N 39°33' E 002°38'14 2.4
2016-Sep-24 03:33N 39°24' E 002°24'1211.9
2016-Sep-24 02:32N 39°33' E 002°12'1211.9
2016-Sep-24 01:33N 39°44' E 002°13'1211.9
2016-Sep-24 00:33N 39°56' E 002°13'5911.9
2016-Sep-23 19:33N 40°56' E 002°13'13 0.3
2016-Sep-22 03:14N 41°06' E 002°04'2810.6
2016-Sep-22 00:33N 40°44' E 001°40'1110.7
2016-Sep-21 23:33N 40°36' E 001°31'1111.0
2016-Sep-21 22:32N 40°29' E 001°20'3210.7
2016-Sep-21 19:33N 40°08' E 000°48'  
Track history (hours):
 
Tides and Currents Weather Stations Pressure Air Temp Water Temp Dewpoint Dewpoint Depression Visibility Wind Speed Wind Dir Waves Ship Positions

Silver Cloud

Operator: V Ships Leisure SAM

Last reported at 2016-Oct-01 15:31 UTC. Time now 2016-Oct-01 17:13 UTC.
Position N 44°19' E 009°14'.

Length 156 m; draft 5.7 m.

Type: Passenger vessel. MMSI: 309027000.

Date/timePositionNaut miles runAvg speedWind from/ knotsBaromVisibWave heightAir tempDewpointWater temp
2016-Oct-01 15:31N 44°19' E 009°14'0 0.0
2016-Oct-01 14:28N 44°19' E 009°14'0 0.0
2016-Oct-01 13:28N 44°19' E 009°14'4 0.5
2016-Oct-01 04:34N 44°15' E 009°17'1211.8
2016-Oct-01 03:33N 44°09' E 009°03'7510.6
2016-Sep-30 20:29N 43°43' E 007°26'0 0.0
2016-Sep-30 17:29N 43°43' E 007°26'0 0.0
2016-Sep-30 16:29N 43°43' E 007°26'0 0.0
2016-Sep-30 14:29N 43°43' E 007°26'0 0.0
2016-Sep-30 13:29N 43°43' E 007°25'0 0.0
2016-Sep-30 10:29N 43°43' E 007°25'0 0.0
2016-Sep-30 08:23N 43°43' E 007°25'0 0.0
2016-Sep-30 06:14N 43°43' E 007°25'13 4.9
2016-Sep-30 03:33N 43°32' E 007°35'1312.9
2016-Sep-30 02:34N 43°21' E 007°44'6312.3
2016-Sep-29 21:28N 42°37' E 008°45'  
2016-Sep-27 00:33N 39°16' E 003°25'5112.7
2016-Sep-26 20:33N 39°06' E 002°21'1313.4
2016-Sep-26 19:34N 39°08' E 002°04'27 0.7
2016-Sep-25 04:31N 38°54' E 001°34'35 8.8
2016-Sep-25 00:33N 39°13' E 002°12'17 8.7
2016-Sep-24 22:33N 39°23' E 002°30'8 8.4
2016-Sep-24 21:33N 39°29' E 002°37'4 2.0
2016-Sep-24 19:31N 39°33' E 002°38'0 0.0
2016-Sep-24 18:31N 39°33' E 002°38'0 0.0
2016-Sep-24 17:31N 39°33' E 002°38'0 0.0
2016-Sep-24 16:31N 39°33' E 002°38'0 0.0
2016-Sep-24 14:31N 39°33' E 002°38'0 0.0
2016-Sep-24 12:31N 39°33' E 002°38'0 0.0
2016-Sep-24 10:30N 39°33' E 002°38'0 0.0
2016-Sep-24 09:31N 39°33' E 002°38'14 2.4
2016-Sep-24 03:33N 39°24' E 002°24'1211.9
2016-Sep-24 02:32N 39°33' E 002°12'1211.9
2016-Sep-24 01:33N 39°44' E 002°13'1211.9
2016-Sep-24 00:33N 39°56' E 002°13'5911.9
2016-Sep-23 19:33N 40°56' E 002°13'13 0.3
2016-Sep-22 03:14N 41°06' E 002°04'2810.6
2016-Sep-22 00:33N 40°44' E 001°40'1110.7
2016-Sep-21 23:33N 40°36' E 001°31'1111.0
2016-Sep-21 22:32N 40°29' E 001°20'3210.7
2016-Sep-21 19:33N 40°08' E 000°48'  

Dump ship's entire track history